createdAt,value
2022-08-26T00:01:07.491Z,83.73
2022-08-26T00:04:10.278Z,84.00
2022-08-26T00:07:12.133Z,84.07
2022-08-26T00:10:17.297Z,84.12
2022-08-26T00:13:22.015Z,84.52
2022-08-26T00:16:28.336Z,84.66
2022-08-26T00:19:30.136Z,84.71
2022-08-26T00:22:31.766Z,84.76
2022-08-26T00:25:33.512Z,84.95
2022-08-26T00:28:35.488Z,85.52
2022-08-26T00:31:37.890Z,85.57
2022-08-26T00:34:40.651Z,85.58
2022-08-26T00:37:43.234Z,85.83
2022-08-26T00:40:50.368Z,85.64
2022-08-26T00:43:52.646Z,85.58
2022-08-26T00:47:00.083Z,85.71
2022-08-26T00:50:07.376Z,85.52
2022-08-26T00:53:23.982Z,85.74
2022-08-26T00:56:41.106Z,86.27
2022-08-26T00:59:46.484Z,86.55
2022-08-26T01:02:50.569Z,86.62
2022-08-26T01:05:56.152Z,86.72
2022-08-26T01:08:58.325Z,86.69
2022-08-26T01:12:02.962Z,86.94
2022-08-26T01:15:05.977Z,87.15
2022-08-26T01:18:08.711Z,87.35
2022-08-26T01:21:21.662Z,87.25
2022-08-26T01:24:27.606Z,86.98
2022-08-26T01:27:32.603Z,87.51
2022-08-26T01:30:40.439Z,87.73
2022-08-26T01:34:02.017Z,88.07
2022-08-26T01:37:03.722Z,88.01
2022-08-26T01:40:12.403Z,88.17
2022-08-26T01:43:19.616Z,88.47
2022-08-26T01:46:24.636Z,88.24
2022-08-26T01:49:55.709Z,89.21
2022-08-26T01:53:00.908Z,88.90
2022-08-26T01:56:03.988Z,88.79
2022-08-26T01:59:10.728Z,88.92
2022-08-26T02:02:13.947Z,88.92
2022-08-26T02:05:19.339Z,88.74
2022-08-26T02:08:26.075Z,89.04
2022-08-26T02:11:28.383Z,89.22
2022-08-26T02:14:35.049Z,89.82
2022-08-26T02:17:47.257Z,90.19
2022-08-26T02:20:54.233Z,90.01
2022-08-26T02:23:56.467Z,90.48
2022-08-26T02:27:01.473Z,90.58
2022-08-26T02:30:11.210Z,90.53
2022-08-26T02:33:13.318Z,90.49
2022-08-26T02:36:20.876Z,90.61
2022-08-26T02:39:22.769Z,90.93
2022-08-26T02:42:24.496Z,90.99
2022-08-26T02:45:28.022Z,91.42
2022-08-26T02:48:30.311Z,91.57
2022-08-26T02:51:31.992Z,91.79
2022-08-26T02:54:34.958Z,92.12
2022-08-26T02:57:37.642Z,92.12
2022-08-26T03:00:52.531Z,92.76
2022-08-26T03:03:55.098Z,93.05
2022-08-26T03:06:57.054Z,92.83
2022-08-26T03:09:59.075Z,92.81
2022-08-26T03:13:05.146Z,92.44
2022-08-26T03:16:07.638Z,92.35
2022-08-26T03:19:09.656Z,92.85
2022-08-26T03:22:12.023Z,92.94
2022-08-26T03:25:17.011Z,93.13
2022-08-26T03:28:19.356Z,93.07
2022-08-26T03:31:21.516Z,93.20
2022-08-26T03:34:26.284Z,93.50
2022-08-26T03:37:28.020Z,93.66
2022-08-26T03:40:29.811Z,93.66
2022-08-26T03:43:31.472Z,93.52
2022-08-26T03:46:33.635Z,93.71
2022-08-26T03:49:35.927Z,93.63
2022-08-26T03:52:43.025Z,93.69
2022-08-26T03:55:47.651Z,93.96
2022-08-26T03:58:54.211Z,93.95
2022-08-26T04:01:55.864Z,94.07
2022-08-26T04:04:57.684Z,94.08
2022-08-26T04:07:59.551Z,94.47
2022-08-26T04:11:01.611Z,94.32
2022-08-26T04:14:07.286Z,94.33
2022-08-26T04:17:08.936Z,94.47
2022-08-26T04:20:13.928Z,94.63
2022-08-26T04:23:17.872Z,94.33
2022-08-26T04:26:21.188Z,94.38
2022-08-26T04:29:26.528Z,94.47
2022-08-26T04:32:28.583Z,94.46
2022-08-26T04:35:31.428Z,95.09
2022-08-26T04:38:34.487Z,94.42
2022-08-26T04:41:36.926Z,94.60
2022-08-26T04:44:38.565Z,94.72
2022-08-26T04:47:41.184Z,94.49
2022-08-26T04:51:29.767Z,94.66
2022-08-26T04:54:31.515Z,94.81
2022-08-26T04:57:33.678Z,94.99
2022-08-26T05:00:36.055Z,95.16
2022-08-26T05:08:14.974Z,95.26
2022-08-26T05:11:17.202Z,95.27
2022-08-26T05:14:22.233Z,95.00
2022-08-26T05:17:27.299Z,95.00
2022-08-26T05:20:28.965Z,95.11
2022-08-26T05:23:34.066Z,95.47
2022-08-26T05:26:36.176Z,94.67
2022-08-26T05:29:37.870Z,94.21
2022-08-26T05:32:39.566Z,94.14
2022-08-26T05:35:43.075Z,93.71
2022-08-26T05:38:44.918Z,93.66
2022-08-26T05:41:46.826Z,93.92
2022-08-26T05:44:55.412Z,94.12
2022-08-26T05:47:57.975Z,93.89
2022-08-26T05:51:04.972Z,93.64
2022-08-26T05:54:10.326Z,93.22
2022-08-26T05:57:13.877Z,92.51
2022-08-26T06:00:16.272Z,91.76
2022-08-26T06:03:18.847Z,92.08
2022-08-26T06:06:27.584Z,91.21
2022-08-26T06:09:30.823Z,90.98
2022-08-26T06:12:33.762Z,90.34
2022-08-26T06:15:39.728Z,89.76
2022-08-26T06:18:46.415Z,89.55
2022-08-26T06:21:51.313Z,89.13
2022-08-26T06:25:15.407Z,89.15
2022-08-26T06:28:17.540Z,88.25
2022-08-26T06:31:19.879Z,87.73
2022-08-26T06:34:22.532Z,87.60
2022-08-26T06:37:28.314Z,87.47
2022-08-26T06:40:31.328Z,87.28
2022-08-26T06:43:33.160Z,87.36
2022-08-26T06:46:35.378Z,86.65
2022-08-26T06:49:37.341Z,85.55
2022-08-26T06:52:42.445Z,84.25
2022-08-26T06:55:46.211Z,83.80
2022-08-26T06:58:48.703Z,83.51
2022-08-26T07:01:50.402Z,83.39
2022-08-26T07:04:52.061Z,83.60
2022-08-26T07:07:58.451Z,82.67
2022-08-26T07:11:05.619Z,82.15
2022-08-26T07:14:07.717Z,81.24
2022-08-26T07:17:13.759Z,81.02
2022-08-26T07:20:16.061Z,80.25
2022-08-26T07:23:18.758Z,80.03
2022-08-26T07:26:24.893Z,79.72
2022-08-26T07:29:26.663Z,79.34
2022-08-26T07:32:28.536Z,79.35
2022-08-26T07:35:30.206Z,79.19
2022-08-26T07:38:33.842Z,79.00
2022-08-26T07:41:36.652Z,79.07
2022-08-26T07:44:39.712Z,79.04
2022-08-26T07:47:42.450Z,78.61
2022-08-26T07:50:50.505Z,78.54
2022-08-26T07:53:53.389Z,78.33
2022-08-26T07:56:55.893Z,77.51
2022-08-26T07:59:58.064Z,77.14
2022-08-26T08:03:01.363Z,77.30
2022-08-26T08:06:03.101Z,76.87
2022-08-26T08:09:05.115Z,76.72
2022-08-26T08:12:09.524Z,77.19
2022-08-26T08:15:17.108Z,76.55
2022-08-26T08:18:20.351Z,76.46
2022-08-26T08:21:26.536Z,75.92
2022-08-26T08:24:28.584Z,75.97
2022-08-26T08:27:33.622Z,75.99
2022-08-26T08:30:39.154Z,75.87
2022-08-26T08:33:40.814Z,76.07
2022-08-26T08:36:42.847Z,75.03
2022-08-26T08:39:45.459Z,74.36
2022-08-26T08:42:59.221Z,74.25
2022-08-26T08:46:07.750Z,74.02
2022-08-26T08:49:11.080Z,72.67
2022-08-26T08:52:31.132Z,72.57
2022-08-26T08:55:41.996Z,71.47
2022-08-26T08:58:46.561Z,70.97
2022-08-26T09:01:59.868Z,70.74
2022-08-26T09:05:20.057Z,70.12
2022-08-26T09:08:27.469Z,70.36
2022-08-26T09:11:30.402Z,69.60
2022-08-26T09:14:32.018Z,69.71
2022-08-26T09:17:51.899Z,68.32
2022-08-26T09:20:59.356Z,68.93
2022-08-26T09:24:01.126Z,69.02
2022-08-26T09:27:02.734Z,69.16
2022-08-26T09:30:11.481Z,70.03
2022-08-26T09:33:18.811Z,68.38
2022-08-26T09:36:35.389Z,68.48
2022-08-26T09:39:40.831Z,68.47
2022-08-26T09:42:42.933Z,68.63
2022-08-26T09:45:50.630Z,68.25
2022-08-26T09:48:53.272Z,68.18
2022-08-26T09:52:21.381Z,67.99
2022-08-26T09:55:23.732Z,68.04
2022-08-26T10:01:41.861Z,67.32
2022-08-26T10:04:52.101Z,66.68
2022-08-26T10:07:53.914Z,65.92
2022-08-26T10:10:58.949Z,64.88
2022-08-26T10:14:17.257Z,63.58
2022-08-26T10:17:46.981Z,63.29
2022-08-26T10:20:56.461Z,64.35
2022-08-26T10:24:02.026Z,63.66
2022-08-26T10:27:31.593Z,61.55
2022-08-26T10:30:42.954Z,60.51
2022-08-26T10:33:44.799Z,60.93
2022-08-26T10:37:15.919Z,60.76
2022-08-26T10:40:24.110Z,60.61
2022-08-26T10:43:30.388Z,59.81
2022-08-26T10:46:44.298Z,59.11
2022-08-26T10:49:49.472Z,60.16
2022-08-26T10:53:33.108Z,61.37
2022-08-26T10:56:49.888Z,61.08
2022-08-26T11:00:29.493Z,60.46
2022-08-26T11:03:50.675Z,60.67
2022-08-26T11:07:31.602Z,60.46
2022-08-26T11:10:44.856Z,60.33
2022-08-26T11:14:01.907Z,61.07
2022-08-26T11:17:11.836Z,61.35
2022-08-26T11:20:22.673Z,61.85
2022-08-26T11:23:28.201Z,60.86
2022-08-26T11:26:55.549Z,59.50
2022-08-26T11:30:00.600Z,59.09
2022-08-26T11:33:02.773Z,59.43
2022-08-26T11:36:11.532Z,59.77
2022-08-26T11:39:25.464Z,60.19
2022-08-26T11:42:41.690Z,59.87
2022-08-26T11:45:47.514Z,60.10
2022-08-26T11:48:49.349Z,59.83
2022-08-26T11:51:51.381Z,59.62
2022-08-26T11:55:14.331Z,58.92
2022-08-26T11:58:16.527Z,58.83
2022-08-26T12:01:39.934Z,58.11
2022-08-26T12:04:46.390Z,57.89
2022-08-26T12:07:50.942Z,57.08
2022-08-26T12:11:11.439Z,54.76
2022-08-26T12:14:22.400Z,54.34
2022-08-26T12:17:27.898Z,54.60
2022-08-26T12:20:48.837Z,53.05
2022-08-26T12:23:54.592Z,53.15
2022-08-26T12:27:30.914Z,51.62
2022-08-26T12:30:32.973Z,52.36
2022-08-26T12:33:36.369Z,51.40
2022-08-26T12:36:46.481Z,49.87
2022-08-26T12:39:49.164Z,50.50
2022-08-26T12:42:51.270Z,50.55
2022-08-26T12:45:58.401Z,49.68
2022-08-26T12:49:03.901Z,49.70
2022-08-26T12:52:07.616Z,48.76
2022-08-26T12:55:28.616Z,47.84
2022-08-26T12:58:33.084Z,47.93
2022-08-26T13:01:42.906Z,48.43
2022-08-26T13:04:46.149Z,46.63
2022-08-26T13:08:24.437Z,45.87
2022-08-26T13:11:26.070Z,45.58
2022-08-26T13:14:27.769Z,46.24
2022-08-26T13:17:30.661Z,46.40
2022-08-26T13:20:32.612Z,47.39
2022-08-26T13:23:34.423Z,45.77
2022-08-26T13:26:36.189Z,45.49
2022-08-26T13:29:38.260Z,45.61
2022-08-26T13:32:40.555Z,44.81
2022-08-26T13:35:44.510Z,44.49
2022-08-26T13:38:48.423Z,43.47
2022-08-26T13:41:54.380Z,43.19
2022-08-26T13:44:58.159Z,43.62
2022-08-26T13:48:00.487Z,43.18
2022-08-26T13:51:02.917Z,42.29
2022-08-26T13:54:09.926Z,42.38
2022-08-26T13:57:11.543Z,42.53
2022-08-26T14:00:15.145Z,42.07
2022-08-26T14:03:17.179Z,41.57
2022-08-26T14:06:19.300Z,41.81
2022-08-26T14:09:20.928Z,42.11
2022-08-26T14:12:22.813Z,44.02
2022-08-26T14:15:25.195Z,45.14
2022-08-26T14:18:33.348Z,46.17
2022-08-26T14:21:37.891Z,46.80
2022-08-26T14:24:39.537Z,47.62
2022-08-26T14:27:44.793Z,48.64
2022-08-26T14:30:53.210Z,49.40
2022-08-26T14:33:58.440Z,50.34
2022-08-26T14:37:07.659Z,49.92
2022-08-26T14:40:10.647Z,49.71
2022-08-26T14:43:15.203Z,49.53
2022-08-26T14:46:18.405Z,49.41
2022-08-26T14:49:21.816Z,49.60
2022-08-26T14:52:23.555Z,49.45
2022-08-26T14:55:26.334Z,49.46
2022-08-26T14:58:32.939Z,49.30
2022-08-26T15:01:37.112Z,49.43
2022-08-26T15:04:39.228Z,48.31
2022-08-26T15:07:41.118Z,47.15
2022-08-26T15:10:42.802Z,45.72
2022-08-26T15:13:45.799Z,44.30
2022-08-26T15:16:53.979Z,42.92
2022-08-26T15:19:55.643Z,42.04
2022-08-26T15:22:58.221Z,41.42
2022-08-26T15:26:04.373Z,39.91
2022-08-26T15:29:06.752Z,38.73
2022-08-26T15:32:08.653Z,38.28
2022-08-26T15:35:10.407Z,37.89
2022-08-26T15:38:12.918Z,37.23
2022-08-26T15:41:14.820Z,36.48
2022-08-26T15:44:18.453Z,37.34
2022-08-26T15:47:20.234Z,36.91
2022-08-26T15:50:22.202Z,36.60
2022-08-26T15:53:29.546Z,36.25
2022-08-26T15:56:34.445Z,36.80
2022-08-26T15:59:36.586Z,36.45
2022-08-26T16:02:38.478Z,36.19
2022-08-26T16:05:43.610Z,36.23
2022-08-26T16:08:45.964Z,36.32
2022-08-26T16:11:47.695Z,36.81
2022-08-26T16:14:52.689Z,37.02
2022-08-26T16:17:54.515Z,37.37
2022-08-26T16:21:13.381Z,37.39
2022-08-26T16:24:15.994Z,37.03
2022-08-26T16:27:17.698Z,37.36
2022-08-26T16:30:20.715Z,38.14
2022-08-26T16:33:29.170Z,39.25
2022-08-26T16:36:31.654Z,40.32
2022-08-26T16:39:33.361Z,40.49
2022-08-26T16:42:41.959Z,41.54
2022-08-26T16:45:43.595Z,42.28
2022-08-26T16:48:45.690Z,43.04
2022-08-26T16:51:47.528Z,43.67
2022-08-26T16:54:49.406Z,44.35
2022-08-26T16:57:51.503Z,44.97
2022-08-26T17:00:53.160Z,46.14
2022-08-26T17:03:54.924Z,50.37
2022-08-26T17:06:56.729Z,57.12
2022-08-26T17:09:58.928Z,59.23
2022-08-26T17:13:00.804Z,52.63
2022-08-26T17:16:04.233Z,53.34
2022-08-26T17:19:09.350Z,58.22
2022-08-26T17:22:12.153Z,61.64
2022-08-26T17:25:18.277Z,64.31
2022-08-26T17:28:19.914Z,66.38
2022-08-26T17:31:23.422Z,68.31
2022-08-26T17:34:26.424Z,70.81
2022-08-26T17:37:28.349Z,71.41
2022-08-26T17:40:31.686Z,70.63
2022-08-26T17:43:34.199Z,72.08
2022-08-26T17:46:38.424Z,73.88
2022-08-26T17:49:40.924Z,76.33
2022-08-26T17:52:44.018Z,76.10
2022-08-26T17:55:46.566Z,76.57
2022-08-26T17:58:51.250Z,77.38
2022-08-26T18:01:55.598Z,77.79
2022-08-26T18:04:58.056Z,78.99
2022-08-26T18:12:41.010Z,80.20
2022-08-26T18:15:45.432Z,82.55
2022-08-26T18:18:48.623Z,84.36
2022-08-26T18:21:50.402Z,85.23
2022-08-26T18:24:59.075Z,85.69
2022-08-26T18:28:01.189Z,85.20
2022-08-26T18:31:05.507Z,86.10
2022-08-26T18:34:07.614Z,86.45
2022-08-26T18:40:17.660Z,86.76
2022-08-26T18:43:19.493Z,88.15
2022-08-26T18:46:23.070Z,88.67
2022-08-26T18:49:24.832Z,89.17
2022-08-26T18:52:27.483Z,90.67
2022-08-26T18:55:29.065Z,91.18
2022-08-26T18:58:30.612Z,91.49
2022-08-26T19:01:34.266Z,92.22
2022-08-26T19:04:38.596Z,92.77
2022-08-26T19:07:40.373Z,93.93
2022-08-26T19:10:43.185Z,93.72
2022-08-26T19:13:45.346Z,94.31
2022-08-26T19:16:50.065Z,94.38
2022-08-26T19:19:53.533Z,94.05
2022-08-26T19:22:57.403Z,94.57
2022-08-26T19:26:04.800Z,93.97
2022-08-26T19:29:06.743Z,94.42
2022-08-26T19:32:08.797Z,94.41
2022-08-26T19:35:10.604Z,94.13
2022-08-26T19:38:12.354Z,93.81
2022-08-26T19:41:16.536Z,93.96
2022-08-26T19:44:39.316Z,94.02
2022-08-26T19:47:41.012Z,94.58
2022-08-26T19:50:46.072Z,94.90
2022-08-26T19:53:48.819Z,95.71
2022-08-26T19:56:51.064Z,96.88
2022-08-26T19:59:52.703Z,96.39
2022-08-26T20:02:55.507Z,96.92
2022-08-26T20:05:57.207Z,96.43
2022-08-26T20:08:58.879Z,98.04
2022-08-26T20:12:01.169Z,98.67
2022-08-26T20:15:05.127Z,98.66
2022-08-26T20:18:27.803Z,97.41
2022-08-26T20:21:35.545Z,97.96
2022-08-26T20:24:37.189Z,96.93
2022-08-26T20:27:38.871Z,93.36
2022-08-26T20:30:40.533Z,92.26
2022-08-26T20:33:46.435Z,92.18
2022-08-26T20:36:50.120Z,91.74
2022-08-26T20:39:51.813Z,90.97
2022-08-26T20:42:53.509Z,90.83
2022-08-26T20:45:55.419Z,90.85
2022-08-26T20:48:58.193Z,91.06
2022-08-26T20:52:00.358Z,92.31
2022-08-26T20:55:02.466Z,92.20
2022-08-26T20:58:04.242Z,92.56
2022-08-26T21:01:08.174Z,93.88
2022-08-26T21:04:14.035Z,92.87
2022-08-26T21:07:15.693Z,92.89
2022-08-26T21:10:19.590Z,92.53
2022-08-26T21:13:21.821Z,92.92
2022-08-26T21:16:23.548Z,92.65
2022-08-26T21:19:25.438Z,94.43
2022-08-26T21:22:28.232Z,95.57
2022-08-26T21:25:29.983Z,96.62
2022-08-26T21:28:31.745Z,96.67
2022-08-26T21:31:33.678Z,97.18
2022-08-26T21:34:35.442Z,97.87
2022-08-26T21:37:37.207Z,98.29
2022-08-26T21:40:38.814Z,97.07
2022-08-26T21:43:41.626Z,97.56
2022-08-26T21:46:45.510Z,98.00
2022-08-26T21:49:47.762Z,98.27
2022-08-26T21:52:49.495Z,98.22
2022-08-26T21:55:51.178Z,98.88
2022-08-26T21:58:55.020Z,98.07
2022-08-26T22:01:57.568Z,97.80
2022-08-26T22:04:59.217Z,98.41
2022-08-26T22:08:00.870Z,98.35
2022-08-26T22:11:02.840Z,98.37
2022-08-26T22:14:05.004Z,96.98
2022-08-26T22:17:06.740Z,97.69
2022-08-26T22:20:16.572Z,98.69
2022-08-26T22:23:20.215Z,98.71
2022-08-26T22:26:25.451Z,98.46
2022-08-26T22:29:27.644Z,98.17
2022-08-26T22:32:29.417Z,99.44
2022-08-26T22:35:31.392Z,99.48
2022-08-26T22:38:33.195Z,99.31
2022-08-26T22:41:35.355Z,99.23
2022-08-26T22:44:37.567Z,99.51
2022-08-26T22:47:40.252Z,99.28
2022-08-26T22:50:43.842Z,100.00
2022-08-26T22:53:45.796Z,100.00
2022-08-26T22:56:47.622Z,100.00
2022-08-26T22:59:49.282Z,100.00
2022-08-26T23:02:50.997Z,100.00
2022-08-26T23:05:52.799Z,100.00
2022-08-26T23:08:57.200Z,100.00
2022-08-26T23:11:58.910Z,100.00
2022-08-26T23:15:01.373Z,100.00
2022-08-26T23:18:03.803Z,100.00
2022-08-26T23:21:06.060Z,100.00
2022-08-26T23:24:11.036Z,100.00
2022-08-26T23:27:12.754Z,100.00
2022-08-26T23:30:18.799Z,100.00
2022-08-26T23:33:22.606Z,100.00
2022-08-26T23:36:24.576Z,100.00
2022-08-26T23:39:26.909Z,100.00
2022-08-26T23:42:29.042Z,100.00
2022-08-26T23:45:35.834Z,100.00
2022-08-26T23:48:37.740Z,100.00
2022-08-26T23:51:57.825Z,100.00
2022-08-26T23:54:59.445Z,100.00
2022-08-26T23:58:01.117Z,100.00
